Time;durP1;ratioP1;P1;durP2;ratioP2;P2;SDS_P1;SDS_P2;PMS_P1;PMS_P2;Temp;Humidity;BMP_temperature;BMP_pressure;BME280_temperature;BME280_humidity;BME280_pressure;Samples;Min_cycle;Max_cycle;Signal;HPM_P1;HPM_P2
2022/07/01 00:01:26;;;;;;;1.10;0.90;;;23.40;56.30;;;;;;5013823;28;20768;-70
2022/07/01 00:03:52;;;;;;;1.40;0.80;;;23.40;56.40;;;;;;5013014;28;20250;-70
2022/07/01 00:06:17;;;;;;;1.45;1.20;;;23.40;56.30;;;;;;5013836;28;20279;-69
2022/07/01 00:08:43;;;;;;;1.38;1.20;;;23.40;56.40;;;;;;5013676;28;20226;-69
2022/07/01 00:11:08;;;;;;;1.73;1.50;;;23.40;56.40;;;;;;5012799;28;20172;-69
2022/07/01 00:13:34;;;;;;;1.23;1.00;;;23.40;56.20;;;;;;5013754;28;20211;-70
2022/07/01 00:15:59;;;;;;;1.88;1.15;;;23.40;56.30;;;;;;5012624;28;20191;-70
2022/07/01 00:18:25;;;;;;;1.65;1.38;;;23.40;56.40;;;;;;5013537;28;20193;-71
2022/07/01 00:20:50;;;;;;;1.10;1.10;;;23.40;56.30;;;;;;5013377;28;20168;-70
2022/07/01 00:23:17;;;;;;;1.88;1.20;;;23.30;56.20;;;;;;5012853;28;20650;-71
2022/07/01 00:25:43;;;;;;;1.58;1.40;;;23.40;56.30;;;;;;5013005;28;20184;-69
2022/07/01 00:28:08;;;;;;;1.45;1.05;;;23.40;56.40;;;;;;5013228;28;20639;-69
2022/07/01 00:30:34;;;;;;;1.70;1.42;;;23.40;56.40;;;;;;5012956;28;20180;-68
2022/07/01 00:32:59;;;;;;;1.20;1.10;;;23.40;56.30;;;;;;5012822;28;20212;-69
2022/07/01 00:35:25;;;;;;;2.22;1.10;;;23.30;56.30;;;;;;5013170;28;20662;-68
2022/07/01 00:37:51;;;;;;;1.10;1.00;;;23.30;56.30;;;;;;5011903;28;20195;-68
2022/07/01 00:40:16;;;;;;;0.88;0.77;;;23.30;56.40;;;;;;5012941;28;20204;-70
2022/07/01 00:42:43;;;;;;;1.10;0.90;;;23.30;56.30;;;;;;5012975;28;20188;-69
2022/07/01 00:45:12;;;;;;;1.48;1.38;;;23.30;56.70;;;;;;5012844;28;20256;-70
2022/07/01 00:47:38;;;;;;;1.45;1.35;;;23.30;56.50;;;;;;5012922;28;20205;-69
2022/07/01 00:50:09;;;;;;;1.77;1.05;;;23.30;56.50;;;;;;4995434;28;20181;-68
2022/07/01 00:52:35;;;;;;;2.28;1.40;;;23.30;56.70;;;;;;5012200;28;20662;-68
2022/07/01 00:55:04;;;;;;;1.58;1.27;;;23.30;56.50;;;;;;5012899;28;20195;-68
2022/07/01 00:57:30;;;;;;;1.90;1.42;;;23.30;56.50;;;;;;5013002;28;20187;-69
2022/07/01 00:59:55;;;;;;;1.65;1.33;;;23.30;56.50;;;;;;5011830;28;20250;-68
2022/07/01 01:02:21;;;;;;;1.10;1.00;;;23.20;56.30;;;;;;5013043;28;20189;-70
2022/07/01 01:04:47;;;;;;;1.63;1.52;;;23.20;56.60;;;;;;5012797;28;20218;-70
2022/07/01 01:07:13;;;;;;;1.45;1.35;;;23.30;56.40;;;;;;5012094;28;20180;-67
2022/07/01 01:09:38;;;;;;;1.90;1.55;;;23.20;56.30;;;;;;4995287;28;20180;-69
2022/07/01 01:12:04;;;;;;;1.90;1.80;;;23.20;56.30;;;;;;4995232;28;20682;-68
2022/07/01 01:14:29;;;;;;;1.30;1.02;;;23.20;56.20;;;;;;5011949;28;20461;-70
2022/07/01 01:16:55;;;;;;;1.88;1.77;;;23.20;56.20;;;;;;5012402;28;20696;-70
2022/07/01 01:19:20;;;;;;;1.80;1.70;;;23.20;56.30;;;;;;5012130;28;20169;-70
2022/07/01 01:21:46;;;;;;;2.40;1.90;;;23.20;56.20;;;;;;5012324;28;20177;-71
2022/07/01 01:24:12;;;;;;;1.65;1.55;;;23.20;56.20;;;;;;5012581;28;20640;-70
2022/07/01 01:26:38;;;;;;;2.00;1.83;;;23.20;56.30;;;;;;5012174;28;20577;-69
2022/07/01 01:29:04;;;;;;;2.50;2.17;;;23.20;56.20;;;;;;5012452;28;20185;-68
2022/07/01 01:31:30;;;;;;;2.65;2.45;;;23.20;56.10;;;;;;5012560;28;20295;-68
2022/07/01 01:33:56;;;;;;;3.05;2.75;;;23.10;56.10;;;;;;5011466;28;20246;-68
2022/07/01 01:36:24;;;;;;;3.53;3.22;;;23.10;56.10;;;;;;5012249;28;20188;-69
2022/07/01 01:38:50;;;;;;;4.40;4.00;;;23.10;56.70;;;;;;5012092;28;20165;-69
2022/07/01 01:41:15;;;;;;;4.68;4.25;;;23.10;56.00;;;;;;5011736;28;20196;-69
2022/07/01 01:43:41;;;;;;;5.30;4.85;;;23.10;56.00;;;;;;5012127;28;20226;-70
2022/07/01 01:46:06;;;;;;;5.50;5.00;;;23.10;56.10;;;;;;5012459;28;20173;-68
2022/07/01 01:48:32;;;;;;;4.82;4.43;;;23.10;56.10;;;;;;5010935;28;20173;-68
2022/07/01 01:50:58;;;;;;;5.80;5.35;;;23.10;56.10;;;;;;5011788;28;20176;-68
2022/07/01 01:53:23;;;;;;;7.20;6.53;;;23.10;56.10;;;;;;5012253;28;20212;-69
2022/07/01 01:55:49;;;;;;;7.55;6.60;;;23.10;55.90;;;;;;5011069;28;20646;-69
2022/07/01 01:58:15;;;;;;;6.00;5.50;;;23.10;56.00;;;;;;5012221;28;20191;-69
2022/07/01 02:00:40;;;;;;;7.05;6.45;;;23.10;56.10;;;;;;5011862;28;20228;-69
2022/07/01 02:03:06;;;;;;;7.55;6.90;;;23.10;56.00;;;;;;5011475;28;20343;-69
2022/07/01 02:05:31;;;;;;;8.02;7.32;;;23.10;55.90;;;;;;5012129;28;20194;-71
2022/07/01 02:07:57;;;;;;;8.02;7.32;;;23.10;56.00;;;;;;5011716;28;20714;-68
2022/07/01 02:10:22;;;;;;;4.88;4.47;;;23.00;56.50;;;;;;5011680;28;20175;-70
2022/07/01 02:12:48;;;;;;;9.15;8.35;;;23.00;55.90;;;;;;5011730;28;20585;-69
2022/07/01 02:15:13;;;;;;;7.25;6.65;;;23.10;55.90;;;;;;5012304;28;20172;-69
2022/07/01 02:17:39;;;;;;;9.02;8.23;;;23.00;55.90;;;;;;5011092;28;20532;-71
2022/07/01 02:20:05;;;;;;;8.02;7.25;;;23.00;55.80;;;;;;5011663;28;20173;-70
2022/07/01 02:22:30;;;;;;;7.35;6.47;;;23.00;55.90;;;;;;5011955;28;20192;-70
2022/07/01 02:24:56;;;;;;;7.72;6.95;;;23.00;55.90;;;;;;5012439;28;20181;-69
2022/07/01 02:27:22;;;;;;;8.88;7.97;;;23.00;55.90;;;;;;5013083;28;20172;-68
2022/07/01 02:29:47;;;;;;;8.40;7.72;;;23.00;55.80;;;;;;5012148;28;20180;-68
2022/07/01 02:32:13;;;;;;;9.00;8.20;;;23.00;55.90;;;;;;5012481;28;20211;-68
2022/07/01 02:34:38;;;;;;;7.22;6.70;;;23.00;55.90;;;;;;5012442;28;20169;-70
2022/07/01 02:37:04;;;;;;;9.45;8.65;;;23.00;55.80;;;;;;5012088;28;20172;-69
2022/07/01 02:39:29;;;;;;;9.35;8.55;;;23.00;55.90;;;;;;5012628;28;20180;-70
2022/07/01 02:44:39;;;;;;;11.02;8.98;;;23.00;55.90;;;;;;5012025;28;20179;-70
2022/07/01 02:47:05;;;;;;;8.85;8.00;;;23.00;56.10;;;;;;5012301;28;20177;-70
2022/07/01 02:49:31;;;;;;;6.03;5.63;;;22.90;56.30;;;;;;5013001;28;20181;-69
2022/07/01 02:51:56;;;;;;;6.03;5.57;;;22.90;56.70;;;;;;5011399;28;20270;-68
2022/07/01 02:54:22;;;;;;;6.22;5.72;;;22.90;56.80;;;;;;5012751;28;20176;-69
2022/07/01 02:56:47;;;;;;;6.32;5.93;;;22.90;56.90;;;;;;5012324;28;20230;-68
2022/07/01 02:59:13;;;;;;;6.20;5.63;;;22.90;56.90;;;;;;5011888;28;20258;-69
2022/07/01 03:01:38;;;;;;;7.15;6.43;;;22.90;56.90;;;;;;5015611;28;20784;-69
2022/07/01 03:04:04;;;;;;;6.40;5.90;;;22.90;57.10;;;;;;5015832;28;20184;-69
2022/07/01 03:06:30;;;;;;;6.90;6.30;;;22.90;57.00;;;;;;5015430;28;20184;-71
2022/07/01 03:08:55;;;;;;;6.43;5.93;;;22.90;57.00;;;;;;5015726;28;20198;-68
2022/07/01 03:11:21;;;;;;;6.13;5.72;;;22.90;57.20;;;;;;5015804;28;20546;-68
2022/07/01 03:13:46;;;;;;;6.25;5.80;;;22.90;57.10;;;;;;5015000;28;20200;-68
2022/07/01 03:16:12;;;;;;;6.80;6.30;;;22.90;57.20;;;;;;5015768;28;20274;-70
2022/07/01 03:18:37;;;;;;;6.25;5.78;;;22.90;57.10;;;;;;5015333;28;20176;-71
2022/07/01 03:21:03;;;;;;;6.75;6.15;;;22.90;57.10;;;;;;5015041;28;20169;-70
2022/07/01 03:23:28;;;;;;;6.85;6.38;;;22.90;57.20;;;;;;5015727;28;20223;-70
2022/07/01 03:25:54;;;;;;;6.22;5.80;;;22.90;57.20;;;;;;5015005;28;20218;-68
2022/07/01 03:28:21;;;;;;;6.97;6.35;;;22.90;57.30;;;;;;5015360;28;20570;-69
2022/07/01 03:30:46;;;;;;;6.47;5.97;;;22.90;57.90;;;;;;5015231;28;20223;-68
2022/07/01 03:33:12;;;;;;;7.10;6.60;;;22.90;57.20;;;;;;5014787;28;20236;-68
2022/07/01 03:35:40;;;;;;;6.75;6.25;;;22.90;57.30;;;;;;5015190;28;20192;-69
2022/07/01 03:38:06;;;;;;;6.32;5.93;;;22.90;57.30;;;;;;5015363;28;20181;-71
2022/07/01 03:40:32;;;;;;;6.68;6.18;;;22.90;57.30;;;;;;5014746;28;20226;-70
2022/07/01 03:42:57;;;;;;;6.88;6.38;;;22.80;57.30;;;;;;5014724;28;20184;-69
2022/07/01 03:45:23;;;;;;;7.03;6.55;;;22.90;57.30;;;;;;5015087;28;20219;-70
2022/07/01 03:47:48;;;;;;;7.13;6.53;;;22.80;57.90;;;;;;5014259;28;20214;-69
2022/07/01 03:50:14;;;;;;;6.82;6.32;;;22.90;57.30;;;;;;5015064;28;20264;-68
2022/07/01 03:52:41;;;;;;;7.22;6.68;;;22.80;57.30;;;;;;5014923;28;20223;-70
2022/07/01 03:55:10;;;;;;;6.88;6.38;;;22.80;57.30;;;;;;5014339;28;20239;-69
2022/07/01 03:57:36;;;;;;;7.30;6.80;;;22.80;57.30;;;;;;5015027;28;20181;-69
2022/07/01 04:00:02;;;;;;;7.65;7.05;;;22.80;57.30;;;;;;5014724;28;20235;-69
2022/07/01 04:02:27;;;;;;;6.70;6.20;;;22.80;57.30;;;;;;5014148;28;20176;-70
2022/07/01 04:04:55;;;;;;;7.13;6.63;;;22.80;57.30;;;;;;5014651;28;20263;-69
2022/07/01 04:07:20;;;;;;;7.40;6.80;;;22.80;57.30;;;;;;5014868;28;20177;-70
2022/07/01 04:09:46;;;;;;;6.22;5.82;;;22.80;57.40;;;;;;5013915;28;20203;-68
2022/07/01 04:12:12;;;;;;;6.57;6.15;;;22.80;57.30;;;;;;4996255;28;20578;-69
2022/07/01 04:14:37;;;;;;;7.57;7.05;;;22.80;57.30;;;;;;4981022;28;20180;-71
2022/07/01 04:17:03;;;;;;;7.07;6.53;;;22.80;57.30;;;;;;4996527;28;20188;-70
2022/07/01 04:19:29;;;;;;;6.90;6.38;;;22.80;57.30;;;;;;4997240;28;20173;-71
2022/07/01 04:24:38;;;;;;;7.13;6.60;;;22.80;57.30;;;;;;5014329;28;20649;-71
2022/07/01 04:27:04;;;;;;;7.65;7.05;;;22.80;57.40;;;;;;5014448;28;20177;-70
2022/07/01 04:29:30;;;;;;;7.45;6.80;;;22.80;57.30;;;;;;5013902;28;20257;-70
2022/07/01 04:31:56;;;;;;;7.60;7.00;;;22.80;57.40;;;;;;5013821;28;20211;-69
2022/07/01 04:34:22;;;;;;;7.90;7.30;;;22.80;57.30;;;;;;5014333;28;20186;-70
2022/07/01 04:36:47;;;;;;;7.40;6.90;;;22.80;57.30;;;;;;5013382;28;20172;-69
2022/07/01 04:39:13;;;;;;;8.02;7.40;;;22.80;57.30;;;;;;5013976;28;20227;-71
2022/07/01 04:44:23;;;;;;;8.35;7.75;;;22.80;57.40;;;;;;5013433;28;20322;-72
2022/07/01 04:46:48;;;;;;;8.48;7.88;;;22.80;57.40;;;;;;5013914;28;20692;-71
2022/07/01 04:49:14;;;;;;;8.15;7.55;;;22.80;57.30;;;;;;5014163;28;20185;-70
2022/07/01 04:51:39;;;;;;;7.72;7.22;;;22.80;57.40;;;;;;5013168;28;20216;-70
2022/07/01 04:54:06;;;;;;;7.85;7.30;;;22.80;57.30;;;;;;5013868;28;20172;-69
2022/07/01 04:56:32;;;;;;;8.35;7.75;;;22.70;57.30;;;;;;5013734;28;20267;-70
2022/07/01 04:58:58;;;;;;;8.05;7.45;;;22.80;57.30;;;;;;5012994;28;20179;-70
2022/07/01 05:01:23;;;;;;;7.85;7.25;;;22.80;57.40;;;;;;5013575;28;20232;-71
2022/07/01 05:03:49;;;;;;;8.65;7.82;;;22.70;57.30;;;;;;5013369;28;20179;-71
2022/07/01 05:06:15;;;;;;;8.63;7.93;;;22.70;57.30;;;;;;5013048;28;20184;-71
2022/07/01 05:08:40;;;;;;;8.43;7.82;;;22.80;57.40;;;;;;5013439;28;20200;-70
2022/07/01 05:11:06;;;;;;;8.38;7.72;;;22.70;57.30;;;;;;5013459;28;20188;-69
2022/07/01 05:13:33;;;;;;;8.05;7.40;;;22.70;57.30;;;;;;5012865;28;20702;-69
2022/07/01 05:15:58;;;;;;;8.18;7.57;;;22.70;57.30;;;;;;5013378;28;20238;-70
2022/07/01 05:23:52;;;;;;;10.05;8.95;;;22.70;57.30;;;;;;5013020;28;20615;-71
2022/07/01 05:26:17;;;;;;;8.57;7.70;;;22.70;57.30;;;;;;5012870;28;20262;-69
2022/07/01 05:28:46;;;;;;;8.52;7.82;;;22.70;57.30;;;;;;5013215;28;20181;-69
2022/07/01 05:31:11;;;;;;;9.35;8.45;;;22.70;57.30;;;;;;5013214;28;20180;-69
2022/07/01 05:33:37;;;;;;;9.43;8.57;;;22.70;57.30;;;;;;5012205;28;20211;-69
2022/07/01 05:36:02;;;;;;;9.38;8.68;;;22.70;57.30;;;;;;5013100;28;20169;-70
2022/07/01 05:38:28;;;;;;;8.73;8.02;;;22.70;57.30;;;;;;5013330;28;20565;-71
2022/07/01 05:40:53;;;;;;;8.65;7.95;;;22.70;57.30;;;;;;5012279;28;20190;-71
2022/07/01 05:43:19;;;;;;;9.70;9.00;;;22.70;57.20;;;;;;5013259;28;20649;-70
2022/07/01 05:45:45;;;;;;;8.60;8.00;;;22.70;57.30;;;;;;5012958;28;20187;-72
2022/07/01 05:48:11;;;;;;;9.50;8.80;;;22.70;57.40;;;;;;5012257;28;20218;-70
2022/07/01 05:50:36;;;;;;;9.20;8.50;;;22.70;57.30;;;;;;5012907;28;20176;-69
2022/07/01 05:53:02;;;;;;;12.45;9.23;;;22.70;57.30;;;;;;5012850;28;20568;-71
2022/07/01 05:55:28;;;;;;;8.70;7.95;;;22.70;57.30;;;;;;5012549;28;20184;-69
2022/07/01 05:57:54;;;;;;;9.60;8.80;;;22.70;57.30;;;;;;5012865;28;20183;-69
2022/07/01 06:00:19;;;;;;;9.30;8.57;;;22.70;57.30;;;;;;5012888;28;20603;-70
2022/07/01 06:02:45;;;;;;;10.18;9.32;;;22.70;57.30;;;;;;5012085;28;20172;-69
2022/07/01 06:05:13;;;;;;;8.68;7.93;;;22.70;57.20;;;;;;5012917;28;20256;-71
2022/07/01 06:07:40;;;;;;;9.68;8.88;;;22.70;57.30;;;;;;5012674;28;20195;-70
2022/07/01 06:10:06;;;;;;;9.73;8.95;;;22.70;57.30;;;;;;5012810;28;20172;-68
2022/07/01 06:12:32;;;;;;;9.27;8.48;;;22.70;57.20;;;;;;5012851;28;20251;-71
2022/07/01 06:14:58;;;;;;;9.02;8.32;;;22.70;57.20;;;;;;5012121;28;20204;-70
2022/07/01 06:17:23;;;;;;;9.93;9.13;;;22.70;57.10;;;;;;5012689;28;20224;-72
2022/07/01 06:19:49;;;;;;;8.95;8.25;;;22.70;57.20;;;;;;5012519;28;20173;-71
2022/07/01 06:22:17;;;;;;;9.65;8.75;;;22.80;57.20;;;;;;5012142;28;20263;-71
2022/07/01 06:24:44;;;;;;;9.85;8.95;;;22.70;57.20;;;;;;5012846;28;20629;-70
2022/07/01 06:27:10;;;;;;;9.00;8.27;;;22.70;57.20;;;;;;5012671;28;20183;-70
2022/07/01 06:29:36;;;;;;;10.38;9.48;;;22.70;57.20;;;;;;5012085;28;20271;-69
2022/07/01 06:32:02;;;;;;;9.82;8.93;;;22.70;57.20;;;;;;5012561;28;20239;-68
2022/07/01 06:34:28;;;;;;;9.27;8.57;;;22.70;57.20;;;;;;5012928;28;20177;-70
2022/07/01 06:36:55;;;;;;;9.63;8.82;;;22.70;57.20;;;;;;5015804;28;20631;-69
2022/07/01 06:39:21;;;;;;;9.10;8.40;;;22.70;57.20;;;;;;5016623;28;20180;-71
2022/07/01 06:41:46;;;;;;;10.30;9.27;;;22.70;57.10;;;;;;5016326;28;20658;-70
2022/07/01 06:44:13;;;;;;;9.65;8.85;;;22.80;57.20;;;;;;5015376;28;20697;-72
2022/07/01 06:46:38;;;;;;;9.57;8.77;;;22.80;57.10;;;;;;5016044;28;20705;-72
2022/07/01 06:49:04;;;;;;;11.80;9.35;;;22.80;57.00;;;;;;5016016;28;20198;-73
2022/07/01 06:51:29;;;;;;;10.25;9.27;;;22.80;56.90;;;;;;5015578;28;20226;-69
2022/07/01 06:53:55;;;;;;;9.68;8.80;;;22.80;56.80;;;;;;5015760;28;20650;-69
2022/07/01 06:56:21;;;;;;;13.90;9.68;;;22.80;56.90;;;;;;5016079;28;20175;-69
2022/07/01 06:58:46;;;;;;;9.25;8.32;;;22.80;56.90;;;;;;5015169;28;20185;-68
2022/07/01 07:01:12;;;;;;;9.93;8.95;;;22.80;56.90;;;;;;5015617;28;20585;-69
2022/07/01 07:03:38;;;;;;;16.08;10.38;;;22.80;56.90;;;;;;5015663;28;20183;-71
2022/07/01 07:06:03;;;;;;;10.88;9.05;;;22.80;57.00;;;;;;5015019;28;20208;-68
2022/07/01 07:08:30;;;;;;;10.07;9.18;;;22.80;56.90;;;;;;5016085;28;20203;-69
2022/07/01 07:10:55;;;;;;;10.18;9.18;;;22.80;56.90;;;;;;5015125;28;20260;-69
2022/07/01 07:13:21;;;;;;;11.80;10.25;;;22.70;56.80;;;;;;5015498;28;20640;-69
2022/07/01 07:15:46;;;;;;;10.90;9.80;;;22.70;56.60;;;;;;5015518;28;20702;-71
2022/07/01 07:18:12;;;;;;;10.77;9.88;;;22.70;56.50;;;;;;5015019;28;20191;-71
2022/07/01 07:20:37;;;;;;;11.80;10.60;;;22.70;56.50;;;;;;5015404;28;20247;-71
2022/07/01 07:23:03;;;;;;;11.57;10.48;;;22.80;56.30;;;;;;5015474;28;20180;-71
2022/07/01 07:25:28;;;;;;;15.25;10.70;;;22.80;56.20;;;;;;5014710;28;20176;-69
2022/07/01 07:27:54;;;;;;;13.27;10.13;;;22.80;56.20;;;;;;5015204;28;20173;-70
2022/07/01 07:30:19;;;;;;;11.05;9.55;;;22.80;56.10;;;;;;5015470;28;20188;-69
2022/07/01 07:32:45;;;;;;;10.38;9.40;;;22.80;56.10;;;;;;5014254;28;20291;-69
2022/07/01 07:35:11;;;;;;;10.43;9.48;;;22.90;56.20;;;;;;5015450;28;20589;-69
2022/07/01 07:37:36;;;;;;;13.55;9.68;;;22.90;56.00;;;;;;5015574;28;20180;-71
2022/07/01 07:40:03;;;;;;;10.95;9.43;;;22.90;56.00;;;;;;5014554;28;20200;-70
2022/07/01 07:42:29;;;;;;;10.25;9.23;;;23.00;56.10;;;;;;5015236;28;20251;-70
2022/07/01 07:44:54;;;;;;;10.27;9.35;;;23.00;56.00;;;;;;5014715;28;20263;-71
2022/07/01 07:47:20;;;;;;;10.35;9.05;;;23.00;55.90;;;;;;5014283;28;20180;-71
2022/07/01 07:49:45;;;;;;;11.00;9.90;;;23.00;55.90;;;;;;5014797;28;20222;-70
2022/07/01 07:52:11;;;;;;;11.27;10.18;;;23.00;55.90;;;;;;5014963;28;20215;-71
2022/07/01 07:54:37;;;;;;;10.40;9.38;;;23.00;55.90;;;;;;5014128;28;20172;-71
2022/07/01 07:57:03;;;;;;;10.45;9.45;;;23.10;55.90;;;;;;5014896;28;20552;-70
2022/07/01 07:59:28;;;;;;;11.00;9.25;;;23.10;55.80;;;;;;5014790;28;20168;-70
2022/07/01 08:01:54;;;;;;;10.98;9.85;;;23.10;55.90;;;;;;5013591;28;20235;-70
2022/07/01 08:04:20;;;;;;;9.90;8.90;;;23.10;55.90;;;;;;5015110;28;20176;-70
2022/07/01 08:06:45;;;;;;;10.82;9.70;;;23.10;55.90;;;;;;5014495;28;20181;-69
2022/07/01 08:09:11;;;;;;;10.18;9.18;;;23.00;55.90;;;;;;5013961;28;20259;-68
2022/07/01 08:11:36;;;;;;;10.60;9.63;;;23.00;55.90;;;;;;5014524;28;20212;-68
2022/07/01 08:14:02;;;;;;;10.00;9.00;;;23.10;55.90;;;;;;5014575;28;20185;-70
2022/07/01 08:16:27;;;;;;;10.50;9.50;;;23.00;55.90;;;;;;5013746;28;20607;-71
2022/07/01 08:18:53;;;;;;;11.27;10.02;;;23.10;55.80;;;;;;5014205;28;20184;-71
2022/07/01 08:21:18;;;;;;;11.30;8.93;;;23.00;55.80;;;;;;5014112;28;20251;-70
2022/07/01 08:23:44;;;;;;;11.60;9.20;;;23.10;55.80;;;;;;5013910;28;20169;-69
2022/07/01 08:26:12;;;;;;;9.95;8.93;;;23.10;55.70;;;;;;5014385;28;20193;-69
2022/07/01 08:28:37;;;;;;;9.68;8.77;;;23.10;55.70;;;;;;5013368;28;20183;-71
2022/07/01 08:31:03;;;;;;;10.65;9.65;;;23.20;55.80;;;;;;5014133;28;20267;-70
2022/07/01 08:33:28;;;;;;;9.27;8.30;;;23.20;55.70;;;;;;5014413;28;20212;-69
2022/07/01 08:35:54;;;;;;;10.15;9.13;;;23.20;55.80;;;;;;5013164;28;20271;-70
2022/07/01 08:38:19;;;;;;;10.00;9.00;;;23.20;55.70;;;;;;5014400;28;20195;-70
2022/07/01 08:40:45;;;;;;;9.85;8.95;;;23.20;55.60;;;;;;5013964;28;20235;-71
2022/07/01 08:43:10;;;;;;;8.98;8.18;;;23.30;55.30;;;;;;5013351;28;20175;-70
2022/07/01 08:45:37;;;;;;;10.18;8.88;;;23.30;55.20;;;;;;5014021;28;20180;-72
2022/07/01 08:48:03;;;;;;;9.05;8.10;;;23.30;55.20;;;;;;5014206;28;20234;-69
2022/07/01 08:50:29;;;;;;;10.15;7.90;;;23.30;55.20;;;;;;5013510;28;20172;-69
2022/07/01 08:52:55;;;;;;;8.85;8.05;;;23.30;55.00;;;;;;5013922;28;20212;-71
2022/07/01 08:55:21;;;;;;;8.13;7.32;;;23.30;54.90;;;;;;5013869;28;20179;-70
2022/07/01 08:57:47;;;;;;;8.32;7.60;;;23.40;54.90;;;;;;4995070;28;20278;-69
2022/07/01 09:00:13;;;;;;;8.05;7.25;;;23.40;54.80;;;;;;5013555;28;20223;-70
2022/07/01 09:02:58;;;;;;;8.20;7.50;;;23.30;55.00;;;;;;5013467;28;20188;-70
2022/07/01 09:05:24;;;;;;;6.93;6.32;;;23.40;54.90;;;;;;5013181;28;20177;-70
2022/07/01 09:08:03;;;;;;;8.65;7.75;;;23.40;54.80;;;;;;5013551;28;20172;-68
2022/07/01 09:10:34;;;;;;;7.18;6.47;;;23.40;54.80;;;;;;5013178;28;20601;-69
2022/07/01 09:13:10;;;;;;;8.10;6.90;;;23.40;54.60;;;;;;5013212;28;20220;-69
2022/07/01 09:15:36;;;;;;;6.70;6.00;;;23.50;54.50;;;;;;5013807;28;20246;-69
2022/07/01 09:18:09;;;;;;;6.30;5.72;;;23.50;54.40;;;;;;5012619;28;20231;-71
2022/07/01 09:20:35;;;;;;;5.85;5.35;;;23.50;54.20;;;;;;5013590;28;20214;-71
2022/07/01 09:23:02;;;;;;;5.63;5.10;;;23.50;54.30;;;;;;5013074;28;20176;-70
2022/07/01 09:25:32;;;;;;;5.97;5.40;;;23.50;54.20;;;;;;5012687;28;20271;-69
2022/07/01 09:28:08;;;;;;;5.75;4.88;;;23.50;54.10;;;;;;5013289;28;20259;-68
2022/07/01 09:30:34;;;;;;;4.40;4.00;;;23.50;54.10;;;;;;5013341;28;20633;-69
2022/07/01 09:33:15;;;;;;;5.20;4.70;;;23.50;53.90;;;;;;5012259;28;20228;-70
2022/07/01 09:35:41;;;;;;;6.35;4.40;;;23.50;54.10;;;;;;5012958;28;20187;-69
2022/07/01 09:38:07;;;;;;;4.65;4.22;;;23.50;54.00;;;;;;5013326;28;20187;-69
2022/07/01 09:40:55;;;;;;;5.55;4.43;;;23.50;53.90;;;;;;5012683;28;20176;-71
2022/07/01 09:43:21;;;;;;;4.55;3.78;;;23.40;54.00;;;;;;5013289;28;20191;-70
2022/07/01 09:46:08;;;;;;;4.13;3.72;;;23.40;54.20;;;;;;5012323;28;20181;-70
2022/07/01 09:48:34;;;;;;;4.82;3.47;;;23.40;54.20;;;;;;5013273;28;20193;-71
2022/07/01 09:51:04;;;;;;;4.25;3.70;;;23.30;54.10;;;;;;5012772;28;20169;-69
2022/07/01 09:53:29;;;;;;;3.92;3.00;;;23.30;54.20;;;;;;5012545;28;20216;-70
2022/07/01 09:55:55;;;;;;;3.72;3.00;;;23.40;54.20;;;;;;5012800;28;20541;-69
2022/07/01 09:58:20;;;;;;;3.40;3.00;;;23.40;53.80;;;;;;5013023;28;20257;-71
2022/07/01 10:00:46;;;;;;;4.70;3.10;;;23.50;53.50;;;;;;5011782;28;20248;-71
2022/07/01 10:03:12;;;;;;;3.53;3.00;;;23.50;53.50;;;;;;5012998;28;20172;-69
2022/07/01 10:06:24;;;;;;;5.10;2.78;;;23.60;53.20;;;;;;5012759;28;20589;-70
2022/07/01 10:08:58;;;;;;;4.03;3.13;;;23.60;53.20;;;;;;5006873;28;20191;-68
2022/07/01 10:11:42;;;;;;;3.22;2.92;;;23.60;53.20;;;;;;4999223;28;20180;-68
2022/07/01 10:14:09;;;;;;;4.22;2.72;;;23.60;53.00;;;;;;5016121;28;20192;-69
2022/07/01 10:16:36;;;;;;;2.72;2.47;;;23.70;52.90;;;;;;4999409;28;20200;-70
2022/07/01 10:19:20;;;;;;;2.95;2.10;;;23.70;52.80;;;;;;4999408;28;20184;-70
2022/07/01 10:21:46;;;;;;;2.40;2.20;;;23.70;52.60;;;;;;5015734;28;20179;-70
2022/07/01 10:24:15;;;;;;;2.50;1.90;;;23.60;52.70;;;;;;5016725;28;20607;-70
2022/07/01 10:26:41;;;;;;;3.15;2.10;;;23.60;52.80;;;;;;5016569;28;20183;-69
2022/07/01 10:29:27;;;;;;;2.28;2.08;;;23.60;52.90;;;;;;5015585;28;20185;-69
2022/07/01 10:31:52;;;;;;;2.55;2.15;;;23.60;52.60;;;;;;5016058;28;20207;-68
2022/07/01 10:34:18;;;;;;;2.38;1.98;;;23.70;52.60;;;;;;4999237;28;20184;-69
2022/07/01 10:36:43;;;;;;;3.08;1.95;;;23.60;52.50;;;;;;4982128;28;20172;-70
2022/07/01 10:39:10;;;;;;;2.40;1.90;;;23.60;52.50;;;;;;5016502;28;20183;-69
2022/07/01 10:41:41;;;;;;;2.35;1.95;;;23.70;52.50;;;;;;5016451;28;20255;-70
2022/07/01 10:44:11;;;;;;;2.55;2.00;;;23.70;52.20;;;;;;5015507;28;20600;-70
2022/07/01 10:46:41;;;;;;;1.98;1.60;;;23.80;52.10;;;;;;5016080;28;20191;-71
2022/07/01 10:49:14;;;;;;;2.67;1.60;;;23.80;51.90;;;;;;5015591;28;20190;-69
2022/07/01 10:51:43;;;;;;;1.70;1.60;;;23.80;51.90;;;;;;5016182;28;20177;-69
2022/07/01 10:54:08;;;;;;;2.20;1.60;;;23.80;51.80;;;;;;5018039;28;20211;-68
2022/07/01 10:56:40;;;;;;;4.65;1.58;;;23.90;51.60;;;;;;5015508;28;20173;-70
2022/07/01 10:59:06;;;;;;;4.93;1.80;;;23.80;51.70;;;;;;5015874;28;20180;-69
2022/07/01 11:01:31;;;;;;;3.53;1.60;;;23.80;51.70;;;;;;5015045;28;20274;-69
2022/07/01 11:03:57;;;;;;;5.30;1.90;;;23.80;51.60;;;;;;5014034;28;20553;-69
2022/07/01 11:06:22;;;;;;;4.70;2.10;;;23.70;51.80;;;;;;4997340;28;20658;-68
2022/07/01 11:08:49;;;;;;;7.20;1.85;;;23.70;52.10;;;;;;4996905;28;20646;-69
2022/07/01 11:11:15;;;;;;;3.33;1.90;;;23.70;52.10;;;;;;5014037;28;20257;-68
2022/07/01 11:13:40;;;;;;;3.03;2.08;;;23.80;52.00;;;;;;4996812;28;20629;-69
2022/07/01 11:16:06;;;;;;;3.60;1.75;;;23.80;51.80;;;;;;4980722;28;20645;-70
2022/07/01 11:18:31;;;;;;;4.03;1.60;;;23.80;51.70;;;;;;5013819;28;20553;-71
2022/07/01 11:21:09;;;;;;;6.18;1.52;;;23.90;51.80;;;;;;5013863;28;20631;-71
2022/07/01 11:23:38;;;;;;;2.53;1.60;;;23.90;51.80;;;;;;5014571;28;20529;-71
2022/07/01 11:26:03;;;;;;;2.50;1.45;;;23.90;51.90;;;;;;5013517;28;20169;-68
2022/07/01 11:28:29;;;;;;;2.50;1.38;;;23.70;51.90;;;;;;5014637;28;20176;-70
2022/07/01 11:31:00;;;;;;;4.50;1.70;;;23.70;51.90;;;;;;5014210;28;20173;-69
2022/07/01 11:33:26;;;;;;;5.20;1.67;;;23.60;52.00;;;;;;5013687;28;20243;-70
2022/07/01 11:41:27;;;;;;;2.50;1.20;;;23.70;51.60;;;;;;5014282;28;20171;-70
2022/07/01 11:43:53;;;;;;;3.17;1.45;;;23.80;51.50;;;;;;5013959;28;20235;-71
2022/07/01 11:46:19;;;;;;;3.05;1.23;;;23.80;51.30;;;;;;5013490;28;20239;-71
2022/07/01 11:48:49;;;;;;;1.77;1.23;;;23.70;51.10;;;;;;5014012;28;20523;-70
2022/07/01 11:51:16;;;;;;;2.60;1.25;;;23.70;51.20;;;;;;5014342;28;20208;-69
2022/07/01 11:53:46;;;;;;;3.05;1.15;;;23.60;51.40;;;;;;5013220;28;20235;-70
2022/07/01 11:56:12;;;;;;;2.17;1.25;;;23.60;51.40;;;;;;5014059;28;20176;-69
2022/07/01 11:58:50;;;;;;;2.63;1.15;;;23.50;51.40;;;;;;5013839;28;20256;-70
2022/07/01 12:01:26;;;;;;;2.17;1.33;;;23.60;51.40;;;;;;4978741;28;1016357;-70
2022/07/01 12:03:52;;;;;;;1.92;1.20;;;23.60;51.30;;;;;;5014735;28;20198;-70
2022/07/01 12:06:19;;;;;;;2.28;1.00;;;23.60;51.20;;;;;;5014157;28;20177;-69
2022/07/01 12:08:45;;;;;;;2.22;1.10;;;23.70;51.30;;;;;;4997272;28;20177;-67
2022/07/01 12:11:11;;;;;;;2.65;1.20;;;23.70;51.00;;;;;;5014666;28;20208;-68
2022/07/01 12:13:38;;;;;;;1.63;1.00;;;23.70;50.70;;;;;;5013681;28;20251;-70
2022/07/01 12:16:09;;;;;;;3.08;1.00;;;23.70;50.60;;;;;;5014438;28;20218;-69
2022/07/01 12:18:38;;;;;;;2.40;0.80;;;23.80;50.60;;;;;;5014515;28;20184;-71
2022/07/01 12:21:03;;;;;;;1.70;1.15;;;23.80;50.50;;;;;;5013848;28;20175;-70
2022/07/01 12:23:30;;;;;;;3.95;1.10;;;23.80;50.30;;;;;;5014483;28;20168;-70
2022/07/01 12:25:55;;;;;;;1.98;0.93;;;23.80;50.20;;;;;;4996837;28;20188;-69
2022/07/01 12:28:28;;;;;;;1.45;1.02;;;23.90;50.20;;;;;;5013720;28;20180;-68
2022/07/01 12:31:02;;;;;;;3.78;1.10;;;23.90;50.10;;;;;;5014048;28;20176;-68
2022/07/01 12:33:27;;;;;;;2.15;0.82;;;23.90;49.90;;;;;;5013600;28;20306;-69
2022/07/01 12:35:54;;;;;;;2.72;1.05;;;23.90;49.90;;;;;;5013312;28;20259;-69
2022/07/01 12:38:19;;;;;;;2.17;1.10;;;24.00;50.00;;;;;;5014292;28;20720;-69
2022/07/01 12:40:45;;;;;;;2.30;1.00;;;23.90;49.80;;;;;;5014080;28;20208;-69
2022/07/01 12:43:29;;;;;;;1.88;1.08;;;23.90;49.90;;;;;;4995799;28;20267;-69
2022/07/01 12:45:56;;;;;;;2.38;1.20;;;23.80;50.00;;;;;;5013821;28;20534;-71
2022/07/01 12:48:21;;;;;;;3.45;1.05;;;23.90;50.00;;;;;;4996718;28;20183;-70
2022/07/01 12:50:47;;;;;;;1.63;0.90;;;23.90;49.80;;;;;;5013196;28;20271;-70
2022/07/01 12:53:18;;;;;;;0.93;0.80;;;23.80;49.90;;;;;;5013913;28;20287;-69
2022/07/01 12:55:54;;;;;;;1.80;0.80;;;23.70;50.00;;;;;;5012902;28;20276;-69
2022/07/01 12:58:21;;;;;;;1.45;0.90;;;23.80;49.70;;;;;;5014040;28;20184;-69
2022/07/01 13:00:51;;;;;;;1.98;0.90;;;23.80;49.80;;;;;;5013555;28;20232;-69
2022/07/01 13:03:22;;;;;;;3.10;1.00;;;23.70;49.80;;;;;;5013127;28;20200;-70